Nanaimo, Canada
Current Conditions -  °F | °C
As of 4:00 PM on Tuesday 25 Nov 2014 (Local Time) from CYCD Reporting Station
Light Rain Light Rain  
Wind Chill: 43°   Ceiling: 400
Heat Index: 43°   Visibility: 1.5mi
Dew Point: 41°   Wind: 2mph
Humidity: 93%   Direction: 290°WNW
Pressure: 30.2"   Gusts: NA
Location:  49.16°N, 123.94°W
Report Text: CYCD 260000Z 29002KT 1 1/2SM -RA BR BKN004 OVC015 06/05 A3020 RMK SF6SC2 SLP228
Loading
Personal Weather Stations






























Interactive Weather Map New forecast layout! Learn more

10-Day Weather Forecast

Advertisements
Track Severe Weather on mobile